Albany, Minnesota
Current Conditions -  °F | °C
As of 6:12 AM on Friday 19 Dec 2014 (Local Time) from KD39 Reporting Station
Haze Haze  
Wind Chill: 11°   Ceiling: 500
Heat Index: 20°   Visibility: 3mi
Dew Point: 19°   Wind: 8mph
Humidity: 96%   Direction: 130°SE
Pressure: 30.17"   Gusts: NA
Location:  45.63°N, 94.57°W
Report Text: KD39 191212Z AUTO 13007KT 3SM BR OVC005 M06/M07 A3017 RMK AO2 T10651070
Loading
Personal Weather Stations






























Interactive Weather Map New forecast layout! Learn more

10-Day Weather Forecast

Advertisements
Track Severe Weather on mobile